sensor_id;sensor_type;location;lat;lon;timestamp;P1;P2;P0
55076;PMS7003;40971;44.702;11.030;2023-04-03T00:07:13;36.00;36.00;27.00
55076;PMS7003;40971;44.702;11.030;2023-04-03T00:17:16;53.50;47.00;33.00
55076;PMS7003;40971;44.702;11.030;2023-04-03T00:27:17;41.00;41.00;30.50
55076;PMS7003;40971;44.702;11.030;2023-04-03T00:37:19;52.00;48.00;33.67
55076;PMS7003;40971;44.702;11.030;2023-04-03T00:47:23;50.00;45.00;33.00
55076;PMS7003;40971;44.702;11.030;2023-04-03T00:57:26;45.00;43.00;32.00
55076;PMS7003;40971;44.702;11.030;2023-04-03T01:07:29;49.50;45.00;31.00
55076;PMS7003;40971;44.702;11.030;2023-04-03T01:17:42;45.33;43.67;30.00
55076;PMS7003;40971;44.702;11.030;2023-04-03T01:27:47;41.80;41.80;29.40
55076;PMS7003;40971;44.702;11.030;2023-04-03T01:37:48;37.67;36.33;27.33
55076;PMS7003;40971;44.702;11.030;2023-04-03T01:47:51;40.00;39.67;30.00
55076;PMS7003;40971;44.702;11.030;2023-04-03T01:57:54;41.33;40.33;28.67
55076;PMS7003;40971;44.702;11.030;2023-04-03T02:07:56;36.60;36.60;26.00
55076;PMS7003;40971;44.702;11.030;2023-04-03T02:17:57;34.00;33.00;25.00
55076;PMS7003;40971;44.702;11.030;2023-04-03T02:27:59;30.00;30.00;24.67
55076;PMS7003;40971;44.702;11.030;2023-04-03T02:38:01;28.00;27.60;21.60
55076;PMS7003;40971;44.702;11.030;2023-04-03T02:48:22;27.33;27.33;22.00
55076;PMS7003;40971;44.702;11.030;2023-04-03T02:58:24;33.33;33.33;21.67
55076;PMS7003;40971;44.702;11.030;2023-04-03T03:08:25;31.00;31.00;23.67
55076;PMS7003;40971;44.702;11.030;2023-04-03T03:18:27;30.67;30.67;21.67
55076;PMS7003;40971;44.702;11.030;2023-04-03T03:28:31;29.50;29.00;21.75
55076;PMS7003;40971;44.702;11.030;2023-04-03T03:38:34;26.33;23.33;18.00
55076;PMS7003;40971;44.702;11.030;2023-04-03T03:48:34;24.50;24.50;16.50
55076;PMS7003;40971;44.702;11.030;2023-04-03T03:58:38;23.86;20.71;14.43
55076;PMS7003;40971;44.702;11.030;2023-04-03T04:08:42;18.86;18.57;14.00
55076;PMS7003;40971;44.702;11.030;2023-04-03T04:18:44;20.33;20.33;13.00
55076;PMS7003;40971;44.702;11.030;2023-04-03T04:39:28;19.86;19.86;15.14
55076;PMS7003;40971;44.702;11.030;2023-04-03T04:49:29;17.00;16.00;13.00
55076;PMS7003;40971;44.702;11.030;2023-04-03T04:59:32;19.00;17.33;12.33
55076;PMS7003;40971;44.702;11.030;2023-04-03T05:09:38;18.00;18.00;12.67
55076;PMS7003;40971;44.702;11.030;2023-04-03T05:19:44;18.86;17.43;13.00
55076;PMS7003;40971;44.702;11.030;2023-04-03T05:29:46;17.33;17.33;12.00
55076;PMS7003;40971;44.702;11.030;2023-04-03T05:39:47;15.00;12.50;10.00
55076;PMS7003;40971;44.702;11.030;2023-04-03T05:49:49;18.67;16.67;12.00
55076;PMS7003;40971;44.702;11.030;2023-04-03T05:59:50;17.33;17.33;15.00
55076;PMS7003;40971;44.702;11.030;2023-04-03T06:09:53;18.50;17.50;12.50
55076;PMS7003;40971;44.702;11.030;2023-04-03T06:19:58;24.40;24.40;19.00
55076;PMS7003;40971;44.702;11.030;2023-04-03T06:30:18;31.50;30.50;22.00
55076;PMS7003;40971;44.702;11.030;2023-04-03T06:40:23;36.63;35.88;25.25
55076;PMS7003;40971;44.702;11.030;2023-04-03T06:50:27;44.67;43.67;29.33
55076;PMS7003;40971;44.702;11.030;2023-04-03T07:00:30;48.33;43.00;30.00
55076;PMS7003;40971;44.702;11.030;2023-04-03T07:10:32;44.00;42.50;31.00
55076;PMS7003;40971;44.702;11.030;2023-04-03T07:20:34;38.33;36.33;26.00
55076;PMS7003;40971;44.702;11.030;2023-04-03T07:30:47;44.33;42.00;30.33
55076;PMS7003;40971;44.702;11.030;2023-04-03T07:40:54;37.33;36.00;28.00
55076;PMS7003;40971;44.702;11.030;2023-04-03T07:51:01;35.00;35.00;25.00
55076;PMS7003;40971;44.702;11.030;2023-04-03T08:01:05;34.00;34.00;23.50
55076;PMS7003;40971;44.702;11.030;2023-04-03T08:11:10;31.78;30.11;25.00
55076;PMS7003;40971;44.702;11.030;2023-04-03T08:21:13;37.00;36.00;26.67
55076;PMS7003;40971;44.702;11.030;2023-04-03T08:31:16;37.33;36.33;26.00
55076;PMS7003;40971;44.702;11.030;2023-04-03T08:41:34;26.00;25.67;20.33
55076;PMS7003;40971;44.702;11.030;2023-04-03T08:51:54;18.20;18.20;13.40
55076;PMS7003;40971;44.702;11.030;2023-04-03T09:02:00;17.00;15.33;10.00
55076;PMS7003;40971;44.702;11.030;2023-04-03T09:32:26;12.00;12.00;8.67
55076;PMS7003;40971;44.702;11.030;2023-04-03T09:42:38;9.50;9.50;8.17
55076;PMS7003;40971;44.702;11.030;2023-04-03T09:52:48;8.00;8.00;7.00
55076;PMS7003;40971;44.702;11.030;2023-04-03T10:02:53;11.00;11.00;8.50
55076;PMS7003;40971;44.702;11.030;2023-04-03T10:13:05;6.00;6.00;5.17
55076;PMS7003;40971;44.702;11.030;2023-04-03T10:23:17;6.00;6.00;5.00
55076;PMS7003;40971;44.702;11.030;2023-04-03T10:33:39;2.00;2.00;2.00
55076;PMS7003;40971;44.702;11.030;2023-04-03T10:43:59;4.50;4.00;2.00
55076;PMS7003;40971;44.702;11.030;2023-04-03T10:54:26;6.00;6.00;4.00
55076;PMS7003;40971;44.702;11.030;2023-04-03T11:15:01;17.14;14.86;11.00
55076;PMS7003;40971;44.702;11.030;2023-04-03T11:35:12;12.17;10.33;8.00
55076;PMS7003;40971;44.702;11.030;2023-04-03T11:55:55;8.50;8.50;5.00
55076;PMS7003;40971;44.702;11.030;2023-04-03T12:26:22;5.00;5.00;3.00
55076;PMS7003;40971;44.702;11.030;2023-04-03T12:36:35;3.00;3.00;2.00
55076;PMS7003;40971;44.702;11.030;2023-04-03T12:46:45;2.00;2.00;2.00
55076;PMS7003;40971;44.702;11.030;2023-04-03T12:57:08;3.00;3.00;3.00
55076;PMS7003;40971;44.702;11.030;2023-04-03T13:07:21;1.00;1.00;1.00
55076;PMS7003;40971;44.702;11.030;2023-04-03T13:17:28;1.00;1.00;1.00
55076;PMS7003;40971;44.702;11.030;2023-04-03T13:27:30;0.00;0.00;0.00
55076;PMS7003;40971;44.702;11.030;2023-04-03T13:37:33;0.00;0.00;0.00
55076;PMS7003;40971;44.702;11.030;2023-04-03T13:47:39;0.00;0.00;0.00
55076;PMS7003;40971;44.702;11.030;2023-04-03T14:08:23;2.00;2.00;1.00
55076;PMS7003;40971;44.702;11.030;2023-04-03T14:18:24;0.50;0.50;0.00
55076;PMS7003;40971;44.702;11.030;2023-04-03T14:28:25;0.00;0.00;0.00
55076;PMS7003;40971;44.702;11.030;2023-04-03T14:38:28;1.00;1.00;0.00
55076;PMS7003;40971;44.702;11.030;2023-04-03T14:48:31;0.00;0.00;0.00
55076;PMS7003;40971;44.702;11.030;2023-04-03T14:58:32;1.00;1.00;1.00
55076;PMS7003;40971;44.702;11.030;2023-04-03T15:08:33;1.00;1.00;1.00
55076;PMS7003;40971;44.702;11.030;2023-04-03T15:18:35;1.00;1.00;0.50
55076;PMS7003;40971;44.702;11.030;2023-04-03T15:28:41;1.00;1.00;1.00
55076;PMS7003;40971;44.702;11.030;2023-04-03T15:39:01;1.00;1.00;1.00
55076;PMS7003;40971;44.702;11.030;2023-04-03T15:49:02;1.00;1.00;1.00
55076;PMS7003;40971;44.702;11.030;2023-04-03T15:59:04;0.00;0.00;0.00
55076;PMS7003;40971;44.702;11.030;2023-04-03T16:09:05;0.00;0.00;0.00
55076;PMS7003;40971;44.702;11.030;2023-04-03T16:19:07;1.00;1.00;1.00
55076;PMS7003;40971;44.702;11.030;2023-04-03T16:29:10;1.00;1.00;1.00
55076;PMS7003;40971;44.702;11.030;2023-04-03T16:49:30;0.00;0.00;0.00
55076;PMS7003;40971;44.702;11.030;2023-04-03T16:59:35;1.00;1.00;1.00
55076;PMS7003;40971;44.702;11.030;2023-04-03T17:09:36;1.00;1.00;1.00
55076;PMS7003;40971;44.702;11.030;2023-04-03T17:19:39;2.00;2.00;1.25
55076;PMS7003;40971;44.702;11.030;2023-04-03T17:29:42;3.00;3.00;2.00
55076;PMS7003;40971;44.702;11.030;2023-04-03T17:40:01;4.00;2.00;1.00
55076;PMS7003;40971;44.702;11.030;2023-04-03T17:50:02;11.00;8.00;7.00
55076;PMS7003;40971;44.702;11.030;2023-04-03T18:00:05;16.00;15.33;10.67
55076;PMS7003;40971;44.702;11.030;2023-04-03T18:10:07;5.00;5.00;4.00
55076;PMS7003;40971;44.702;11.030;2023-04-03T18:20:09;2.75;2.75;2.00
55076;PMS7003;40971;44.702;11.030;2023-04-03T18:30:14;6.00;3.00;1.00
55076;PMS7003;40971;44.702;11.030;2023-04-03T18:40:18;4.00;4.00;3.00
55076;PMS7003;40971;44.702;11.030;2023-04-03T18:50:19;3.67;3.67;1.00
55076;PMS7003;40971;44.702;11.030;2023-04-03T19:00:21;5.50;5.50;4.00
55076;PMS7003;40971;44.702;11.030;2023-04-03T19:10:23;3.50;3.50;3.25
55076;PMS7003;40971;44.702;11.030;2023-04-03T19:20:27;3.00;3.00;2.00
55076;PMS7003;40971;44.702;11.030;2023-04-03T19:30:28;4.00;4.00;3.50
55076;PMS7003;40971;44.702;11.030;2023-04-03T19:40:32;6.75;6.75;6.00
55076;PMS7003;40971;44.702;11.030;2023-04-03T19:50:52;4.00;4.00;2.50
55076;PMS7003;40971;44.702;11.030;2023-04-03T20:00:53;6.00;6.00;4.00
55076;PMS7003;40971;44.702;11.030;2023-04-03T20:11:01;3.00;3.00;3.00
55076;PMS7003;40971;44.702;11.030;2023-04-03T20:21:03;5.00;5.00;3.50
55076;PMS7003;40971;44.702;11.030;2023-04-03T20:31:11;4.00;4.00;3.00
55076;PMS7003;40971;44.702;11.030;2023-04-03T20:41:13;12.50;11.00;10.00
55076;PMS7003;40971;44.702;11.030;2023-04-03T20:51:16;4.00;3.00;3.00
55076;PMS7003;40971;44.702;11.030;2023-04-03T21:01:20;4.00;4.00;1.00
55076;PMS7003;40971;44.702;11.030;2023-04-03T21:22:00;5.00;3.50;3.00
55076;PMS7003;40971;44.702;11.030;2023-04-03T21:32:02;6.00;6.00;4.00
55076;PMS7003;40971;44.702;11.030;2023-04-03T21:42:03;6.75;5.00;4.00
55076;PMS7003;40971;44.702;11.030;2023-04-03T21:52:04;6.33;6.33;3.67
55076;PMS7003;40971;44.702;11.030;2023-04-03T22:02:05;7.00;6.00;6.00
55076;PMS7003;40971;44.702;11.030;2023-04-03T22:12:06;7.00;7.00;6.00
55076;PMS7003;40971;44.702;11.030;2023-04-03T22:22:09;5.50;5.50;4.00
55076;PMS7003;40971;44.702;11.030;2023-04-03T22:32:10;6.00;6.00;4.00
55076;PMS7003;40971;44.702;11.030;2023-04-03T22:42:11;7.67;7.67;6.33
55076;PMS7003;40971;44.702;11.030;2023-04-03T22:52:12;6.00;6.00;4.00
55076;PMS7003;40971;44.702;11.030;2023-04-03T23:02:13;6.75;6.75;5.00
55076;PMS7003;40971;44.702;11.030;2023-04-03T23:12:15;7.67;7.67;6.00
55076;PMS7003;40971;44.702;11.030;2023-04-03T23:22:16;5.50;5.50;5.00
55076;PMS7003;40971;44.702;11.030;2023-04-03T23:32:18;7.67;7.67;6.00
55076;PMS7003;40971;44.702;11.030;2023-04-03T23:42:19;7.00;7.00;6.00
55076;PMS7003;40971;44.702;11.030;2023-04-03T23:52:20;3.00;3.00;1.50
